Terminal Aerodrome Forecast
Issued by NWS

Home | Current Version | Previous Version | Text Only | Print | Product List | Glossary Off
Versions: 1 2 3 4 5 6 7 8 9 10 11 12 13 14 15 16

271
FTUS41 KCLE 201138
TAFFDY
TAF
KFDY 201138Z 2012/2112 09003KT P6SM BKN250
      TEMPO 2012/2013 4SM BR
     FM201600 11010KT P6SM BKN250
     FM210500 14008KT P6SM BKN100=

USA.gov is the U.S. government's official web portal to all federal, state and local government web resources and services.